sensor_id;sensor_type;location;lat;lon;timestamp;temperature;humidity
74178;DHT22;62540;48.456;-4.456;2023-08-12T00:00:41;20.83;75.10
74178;DHT22;62540;48.456;-4.456;2023-08-12T00:03:06;20.80;75.43
74178;DHT22;62540;48.456;-4.456;2023-08-12T00:05:31;20.77;75.25
74178;DHT22;62540;48.456;-4.456;2023-08-12T00:07:57;20.75;75.14
74178;DHT22;62540;48.456;-4.456;2023-08-12T00:10:22;20.55;75.77
74178;DHT22;62540;48.456;-4.456;2023-08-12T00:12:48;20.55;75.46
74178;DHT22;62540;48.456;-4.456;2023-08-12T00:15:13;20.55;75.49
74178;DHT22;62540;48.456;-4.456;2023-08-12T00:17:38;20.55;75.42
74178;DHT22;62540;48.456;-4.456;2023-08-12T00:20:06;20.57;75.51
74178;DHT22;62540;48.456;-4.456;2023-08-12T00:22:34;20.60;75.53
74178;DHT22;62540;48.456;-4.456;2023-08-12T00:24:59;20.62;75.43
74178;DHT22;62540;48.456;-4.456;2023-08-12T00:27:24;20.60;75.68
74178;DHT22;62540;48.456;-4.456;2023-08-12T00:29:50;20.62;75.53
74178;DHT22;62540;48.456;-4.456;2023-08-12T00:32:15;20.62;75.48
74178;DHT22;62540;48.456;-4.456;2023-08-12T00:34:41;20.65;75.47
74178;DHT22;62540;48.456;-4.456;2023-08-12T00:37:06;20.63;75.55
74178;DHT22;62540;48.456;-4.456;2023-08-12T00:39:31;20.57;75.87
74178;DHT22;62540;48.456;-4.456;2023-08-12T00:41:57;20.57;75.86
74178;DHT22;62540;48.456;-4.456;2023-08-12T00:44:22;20.51;75.80
74178;DHT22;62540;48.456;-4.456;2023-08-12T00:46:48;20.51;75.76
74178;DHT22;62540;48.456;-4.456;2023-08-12T00:49:15;20.48;75.98
74178;DHT22;62540;48.456;-4.456;2023-08-12T00:51:41;20.48;75.87
74178;DHT22;62540;48.456;-4.456;2023-08-12T00:54:13;20.49;75.83
74178;DHT22;62540;48.456;-4.456;2023-08-12T00:56:39;20.46;75.85
74178;DHT22;62540;48.456;-4.456;2023-08-12T00:59:07;20.45;76.00
74178;DHT22;62540;48.456;-4.456;2023-08-12T01:01:34;20.36;76.24
74178;DHT22;62540;48.456;-4.456;2023-08-12T01:04:00;20.36;76.02
74178;DHT22;62540;48.456;-4.456;2023-08-12T01:06:25;20.32;76.32
74178;DHT22;62540;48.456;-4.456;2023-08-12T01:08:51;20.24;76.69
74178;DHT22;62540;48.456;-4.456;2023-08-12T01:11:21;20.11;77.62
74178;DHT22;62540;48.456;-4.456;2023-08-12T01:16:40;20.05;77.92
74178;DHT22;62540;48.456;-4.456;2023-08-12T01:19:10;20.07;77.32
74178;DHT22;62540;48.456;-4.456;2023-08-12T01:21:41;20.07;77.13
74178;DHT22;62540;48.456;-4.456;2023-08-12T01:24:08;20.10;77.01
74178;DHT22;62540;48.456;-4.456;2023-08-12T01:26:34;20.14;77.00
74178;DHT22;62540;48.456;-4.456;2023-08-12T01:28:59;20.20;76.97
74178;DHT22;62540;48.456;-4.456;2023-08-12T01:31:34;20.24;76.72
74178;DHT22;62540;48.456;-4.456;2023-08-12T01:34:47;20.22;76.99
74178;DHT22;62540;48.456;-4.456;2023-08-12T01:37:08;20.18;76.87
74178;DHT22;62540;48.456;-4.456;2023-08-12T01:39:36;20.24;76.69
74178;DHT22;62540;48.456;-4.456;2023-08-12T01:42:03;20.28;76.73
74178;DHT22;62540;48.456;-4.456;2023-08-12T01:44:28;20.31;76.50
74178;DHT22;62540;48.456;-4.456;2023-08-12T01:46:55;20.33;76.61
74178;DHT22;62540;48.456;-4.456;2023-08-12T01:49:20;20.38;76.30
74178;DHT22;62540;48.456;-4.456;2023-08-12T01:51:45;20.39;76.32
74178;DHT22;62540;48.456;-4.456;2023-08-12T01:54:11;20.41;76.27
74178;DHT22;62540;48.456;-4.456;2023-08-12T01:56:36;20.41;76.37
74178;DHT22;62540;48.456;-4.456;2023-08-12T01:59:01;20.39;76.47
74178;DHT22;62540;48.456;-4.456;2023-08-12T02:01:27;20.38;76.35
74178;DHT22;62540;48.456;-4.456;2023-08-12T02:03:52;20.35;76.25
74178;DHT22;62540;48.456;-4.456;2023-08-12T02:06:18;20.38;76.15
74178;DHT22;62540;48.456;-4.456;2023-08-12T02:08:44;20.41;76.09
74178;DHT22;62540;48.456;-4.456;2023-08-12T02:11:10;20.38;76.04
74178;DHT22;62540;48.456;-4.456;2023-08-12T02:13:35;20.39;75.99
74178;DHT22;62540;48.456;-4.456;2023-08-12T02:16:00;20.26;76.26
74178;DHT22;62540;48.456;-4.456;2023-08-12T02:18:26;20.36;76.25
74178;DHT22;62540;48.456;-4.456;2023-08-12T02:20:51;20.32;76.24
74178;DHT22;62540;48.456;-4.456;2023-08-12T02:23:16;20.36;76.18
74178;DHT22;62540;48.456;-4.456;2023-08-12T02:25:42;20.33;76.46
74178;DHT22;62540;48.456;-4.456;2023-08-12T02:28:08;20.28;76.28
74178;DHT22;62540;48.456;-4.456;2023-08-12T02:30:33;20.32;76.30
74178;DHT22;62540;48.456;-4.456;2023-08-12T02:32:58;20.31;76.27
74178;DHT22;62540;48.456;-4.456;2023-08-12T02:35:24;20.31;76.17
74178;DHT22;62540;48.456;-4.456;2023-08-12T02:37:49;20.36;76.25
74178;DHT22;62540;48.456;-4.456;2023-08-12T02:40:15;20.33;76.14
74178;DHT22;62540;48.456;-4.456;2023-08-12T02:42:40;20.36;76.09
74178;DHT22;62540;48.456;-4.456;2023-08-12T02:45:06;20.33;76.21
74178;DHT22;62540;48.456;-4.456;2023-08-12T02:47:31;20.31;76.34
74178;DHT22;62540;48.456;-4.456;2023-08-12T02:49:57;20.33;76.30
74178;DHT22;62540;48.456;-4.456;2023-08-12T02:52:22;20.33;76.25
74178;DHT22;62540;48.456;-4.456;2023-08-12T02:54:47;20.32;76.43
74178;DHT22;62540;48.456;-4.456;2023-08-12T02:57:13;20.29;76.53
74178;DHT22;62540;48.456;-4.456;2023-08-12T02:59:38;20.21;76.84
74178;DHT22;62540;48.456;-4.456;2023-08-12T03:02:04;20.14;77.02
74178;DHT22;62540;48.456;-4.456;2023-08-12T03:04:29;20.15;76.90
74178;DHT22;62540;48.456;-4.456;2023-08-12T03:06:54;20.10;77.68
74178;DHT22;62540;48.456;-4.456;2023-08-12T03:09:20;20.05;77.31
74178;DHT22;62540;48.456;-4.456;2023-08-12T03:11:45;20.05;77.26
74178;DHT22;62540;48.456;-4.456;2023-08-12T03:14:11;20.02;77.48
74178;DHT22;62540;48.456;-4.456;2023-08-12T03:16:36;19.97;77.44
74178;DHT22;62540;48.456;-4.456;2023-08-12T03:19:01;20.01;77.20
74178;DHT22;62540;48.456;-4.456;2023-08-12T03:21:27;20.04;77.23
74178;DHT22;62540;48.456;-4.456;2023-08-12T03:23:53;20.02;77.25
74178;DHT22;62540;48.456;-4.456;2023-08-12T03:26:18;19.98;77.11
74178;DHT22;62540;48.456;-4.456;2023-08-12T03:28:44;19.98;77.15
74178;DHT22;62540;48.456;-4.456;2023-08-12T03:31:09;19.95;77.25
74178;DHT22;62540;48.456;-4.456;2023-08-12T03:33:35;19.97;77.22
74178;DHT22;62540;48.456;-4.456;2023-08-12T03:36:00;19.95;77.19
74178;DHT22;62540;48.456;-4.456;2023-08-12T03:38:25;20.04;77.08
74178;DHT22;62540;48.456;-4.456;2023-08-12T03:40:51;20.02;77.32
74178;DHT22;62540;48.456;-4.456;2023-08-12T03:43:16;19.98;77.59
74178;DHT22;62540;48.456;-4.456;2023-08-12T03:45:42;20.01;77.63
74178;DHT22;62540;48.456;-4.456;2023-08-12T03:48:09;20.01;77.58
74178;DHT22;62540;48.456;-4.456;2023-08-12T03:50:35;20.02;77.43
74178;DHT22;62540;48.456;-4.456;2023-08-12T03:53:01;20.08;77.22
74178;DHT22;62540;48.456;-4.456;2023-08-12T03:55:30;20.11;77.14
74178;DHT22;62540;48.456;-4.456;2023-08-12T03:57:56;20.02;77.63
74178;DHT22;62540;48.456;-4.456;2023-08-12T04:00:22;20.02;77.50
74178;DHT22;62540;48.456;-4.456;2023-08-12T04:02:47;20.05;77.36
74178;DHT22;62540;48.456;-4.456;2023-08-12T04:05:13;19.95;77.81
74178;DHT22;62540;48.456;-4.456;2023-08-12T04:07:38;19.93;77.57
74178;DHT22;62540;48.456;-4.456;2023-08-12T04:10:04;19.91;77.55
74178;DHT22;62540;48.456;-4.456;2023-08-12T04:12:29;19.91;77.69
74178;DHT22;62540;48.456;-4.456;2023-08-12T04:14:55;19.90;77.50
74178;DHT22;62540;48.456;-4.456;2023-08-12T04:17:20;19.91;77.56
74178;DHT22;62540;48.456;-4.456;2023-08-12T04:19:45;19.78;77.84
74178;DHT22;62540;48.456;-4.456;2023-08-12T04:22:11;19.78;77.96
74178;DHT22;62540;48.456;-4.456;2023-08-12T04:24:36;19.69;78.48
74178;DHT22;62540;48.456;-4.456;2023-08-12T04:27:01;19.71;78.04
74178;DHT22;62540;48.456;-4.456;2023-08-12T04:29:27;19.71;78.08
74178;DHT22;62540;48.456;-4.456;2023-08-12T04:31:52;19.70;77.96
74178;DHT22;62540;48.456;-4.456;2023-08-12T04:34:18;19.77;77.67
74178;DHT22;62540;48.456;-4.456;2023-08-12T04:36:43;19.75;77.70
74178;DHT22;62540;48.456;-4.456;2023-08-12T04:39:09;19.71;77.89
74178;DHT22;62540;48.456;-4.456;2023-08-12T04:41:35;19.73;77.65
74178;DHT22;62540;48.456;-4.456;2023-08-12T04:44:01;19.69;77.79
74178;DHT22;62540;48.456;-4.456;2023-08-12T04:46:26;19.63;77.97
74178;DHT22;62540;48.456;-4.456;2023-08-12T04:48:52;19.57;78.12
74178;DHT22;62540;48.456;-4.456;2023-08-12T04:51:17;19.53;78.11
74178;DHT22;62540;48.456;-4.456;2023-08-12T04:53:42;19.53;78.03
74178;DHT22;62540;48.456;-4.456;2023-08-12T04:56:08;19.50;78.08
74178;DHT22;62540;48.456;-4.456;2023-08-12T04:58:33;19.43;78.09
74178;DHT22;62540;48.456;-4.456;2023-08-12T05:01:00;19.42;78.19
74178;DHT22;62540;48.456;-4.456;2023-08-12T05:03:26;19.32;78.41
74178;DHT22;62540;48.456;-4.456;2023-08-12T05:05:52;19.35;78.16
74178;DHT22;62540;48.456;-4.456;2023-08-12T05:08:18;19.40;77.97
74178;DHT22;62540;48.456;-4.456;2023-08-12T05:10:43;19.42;77.86
74178;DHT22;62540;48.456;-4.456;2023-08-12T05:13:09;19.36;78.04
74178;DHT22;62540;48.456;-4.456;2023-08-12T05:15:34;19.33;78.24
74178;DHT22;62540;48.456;-4.456;2023-08-12T05:18:02;19.30;78.22
74178;DHT22;62540;48.456;-4.456;2023-08-12T05:20:27;19.32;78.28
74178;DHT22;62540;48.456;-4.456;2023-08-12T05:22:53;19.35;78.28
74178;DHT22;62540;48.456;-4.456;2023-08-12T05:25:18;19.42;78.12
74178;DHT22;62540;48.456;-4.456;2023-08-12T05:27:44;19.39;78.50
74178;DHT22;62540;48.456;-4.456;2023-08-12T05:30:09;19.37;78.22
74178;DHT22;62540;48.456;-4.456;2023-08-12T05:32:35;19.42;78.38
74178;DHT22;62540;48.456;-4.456;2023-08-12T05:35:00;19.40;78.28
74178;DHT22;62540;48.456;-4.456;2023-08-12T05:37:26;19.43;78.55
74178;DHT22;62540;48.456;-4.456;2023-08-12T05:39:51;19.45;78.30
74178;DHT22;62540;48.456;-4.456;2023-08-12T05:42:16;19.46;78.48
74178;DHT22;62540;48.456;-4.456;2023-08-12T05:44:42;19.43;78.55
74178;DHT22;62540;48.456;-4.456;2023-08-12T05:47:08;19.49;78.49
74178;DHT22;62540;48.456;-4.456;2023-08-12T05:49:33;19.50;78.42
74178;DHT22;62540;48.456;-4.456;2023-08-12T05:51:58;19.62;78.15
74178;DHT22;62540;48.456;-4.456;2023-08-12T05:54:24;19.59;78.26
74178;DHT22;62540;48.456;-4.456;2023-08-12T05:56:49;19.62;78.15
74178;DHT22;62540;48.456;-4.456;2023-08-12T05:59:14;19.73;78.07
74178;DHT22;62540;48.456;-4.456;2023-08-12T06:01:40;19.88;78.01
74178;DHT22;62540;48.456;-4.456;2023-08-12T06:04:05;19.98;77.88
74178;DHT22;62540;48.456;-4.456;2023-08-12T06:06:31;20.05;77.67
74178;DHT22;62540;48.456;-4.456;2023-08-12T06:08:56;20.04;77.32
74178;DHT22;62540;48.456;-4.456;2023-08-12T06:11:21;20.00;77.51
74178;DHT22;62540;48.456;-4.456;2023-08-12T06:13:47;20.01;77.55
74178;DHT22;62540;48.456;-4.456;2023-08-12T06:16:12;20.07;77.41
74178;DHT22;62540;48.456;-4.456;2023-08-12T06:18:37;20.25;77.38
74178;DHT22;62540;48.456;-4.456;2023-08-12T06:21:03;20.57;77.20
74178;DHT22;62540;48.456;-4.456;2023-08-12T06:23:28;20.77;76.94
74178;DHT22;62540;48.456;-4.456;2023-08-12T06:25:55;20.96;76.86
74178;DHT22;62540;48.456;-4.456;2023-08-12T06:28:20;21.04;76.46
74178;DHT22;62540;48.456;-4.456;2023-08-12T06:30:45;21.04;75.70
74178;DHT22;62540;48.456;-4.456;2023-08-12T06:33:13;20.97;75.71
74178;DHT22;62540;48.456;-4.456;2023-08-12T06:35:38;20.97;76.10
74178;DHT22;62540;48.456;-4.456;2023-08-12T06:38:05;20.93;75.90
74178;DHT22;62540;48.456;-4.456;2023-08-12T06:40:30;20.73;75.86
74178;DHT22;62540;48.456;-4.456;2023-08-12T06:42:56;20.69;76.15
74178;DHT22;62540;48.456;-4.456;2023-08-12T06:45:21;20.68;75.90
74178;DHT22;62540;48.456;-4.456;2023-08-12T06:47:47;20.70;76.08
74178;DHT22;62540;48.456;-4.456;2023-08-12T06:50:12;20.70;76.07
74178;DHT22;62540;48.456;-4.456;2023-08-12T06:52:37;20.68;76.08
74178;DHT22;62540;48.456;-4.456;2023-08-12T06:55:03;20.65;76.07
74178;DHT22;62540;48.456;-4.456;2023-08-12T06:57:29;20.60;76.27
74178;DHT22;62540;48.456;-4.456;2023-08-12T06:59:54;20.68;76.20
74178;DHT22;62540;48.456;-4.456;2023-08-12T07:02:19;20.72;76.17
74178;DHT22;62540;48.456;-4.456;2023-08-12T07:04:45;20.69;76.07
74178;DHT22;62540;48.456;-4.456;2023-08-12T07:07:10;20.66;76.13
74178;DHT22;62540;48.456;-4.456;2023-08-12T07:09:36;20.70;76.21
74178;DHT22;62540;48.456;-4.456;2023-08-12T07:12:01;20.73;76.24
74178;DHT22;62540;48.456;-4.456;2023-08-12T07:14:27;20.73;76.31
74178;DHT22;62540;48.456;-4.456;2023-08-12T07:16:53;20.76;76.08
74178;DHT22;62540;48.456;-4.456;2023-08-12T07:19:19;20.80;76.03
74178;DHT22;62540;48.456;-4.456;2023-08-12T07:21:44;20.93;75.92
74178;DHT22;62540;48.456;-4.456;2023-08-12T07:24:09;21.04;75.66
74178;DHT22;62540;48.456;-4.456;2023-08-12T07:26:35;21.17;75.62
74178;DHT22;62540;48.456;-4.456;2023-08-12T07:29:00;21.21;75.27
74178;DHT22;62540;48.456;-4.456;2023-08-12T07:31:25;21.21;75.00
74178;DHT22;62540;48.456;-4.456;2023-08-12T07:33:51;21.23;75.01
74178;DHT22;62540;48.456;-4.456;2023-08-12T07:36:16;21.30;75.22
74178;DHT22;62540;48.456;-4.456;2023-08-12T07:38:42;21.32;74.56
74178;DHT22;62540;48.456;-4.456;2023-08-12T07:41:07;21.32;75.02
74178;DHT22;62540;48.456;-4.456;2023-08-12T07:43:32;21.42;74.73
74178;DHT22;62540;48.456;-4.456;2023-08-12T07:45:58;21.51;74.85
74178;DHT22;62540;48.456;-4.456;2023-08-12T07:48:23;21.62;74.73
74178;DHT22;62540;48.456;-4.456;2023-08-12T07:50:59;21.59;73.65
74178;DHT22;62540;48.456;-4.456;2023-08-12T07:53:25;21.59;74.06
74178;DHT22;62540;48.456;-4.456;2023-08-12T07:55:51;21.63;74.27
74178;DHT22;62540;48.456;-4.456;2023-08-12T07:58:17;21.72;73.82
74178;DHT22;62540;48.456;-4.456;2023-08-12T08:00:42;21.76;73.74
74178;DHT22;62540;48.456;-4.456;2023-08-12T08:03:08;21.83;73.62
74178;DHT22;62540;48.456;-4.456;2023-08-12T08:05:33;22.02;73.88
74178;DHT22;62540;48.456;-4.456;2023-08-12T08:07:59;22.29;73.26
74178;DHT22;62540;48.456;-4.456;2023-08-12T08:10:24;22.43;72.99
74178;DHT22;62540;48.456;-4.456;2023-08-12T08:12:50;22.53;71.78
74178;DHT22;62540;48.456;-4.456;2023-08-12T08:15:15;22.65;72.13
74178;DHT22;62540;48.456;-4.456;2023-08-12T08:17:40;22.78;70.99
74178;DHT22;62540;48.456;-4.456;2023-08-12T08:20:07;22.74;71.14
74178;DHT22;62540;48.456;-4.456;2023-08-12T08:22:33;22.69;70.57
74178;DHT22;62540;48.456;-4.456;2023-08-12T08:24:58;22.76;71.61
74178;DHT22;62540;48.456;-4.456;2023-08-12T08:27:24;22.74;70.78
74178;DHT22;62540;48.456;-4.456;2023-08-12T08:29:49;22.84;71.12
74178;DHT22;62540;48.456;-4.456;2023-08-12T08:32:15;22.87;70.53
74178;DHT22;62540;48.456;-4.456;2023-08-12T08:34:42;22.85;70.37
74178;DHT22;62540;48.456;-4.456;2023-08-12T08:37:07;22.94;71.04
74178;DHT22;62540;48.456;-4.456;2023-08-12T08:39:32;22.96;70.35
74178;DHT22;62540;48.456;-4.456;2023-08-12T08:41:58;23.03;70.59
74178;DHT22;62540;48.456;-4.456;2023-08-12T08:44:28;23.12;69.70
74178;DHT22;62540;48.456;-4.456;2023-08-12T08:46:55;23.15;69.28
74178;DHT22;62540;48.456;-4.456;2023-08-12T08:49:21;23.12;69.41
74178;DHT22;62540;48.456;-4.456;2023-08-12T08:51:49;23.11;70.20
74178;DHT22;62540;48.456;-4.456;2023-08-12T08:54:15;23.18;69.76
74178;DHT22;62540;48.456;-4.456;2023-08-12T08:56:41;23.20;70.14
74178;DHT22;62540;48.456;-4.456;2023-08-12T08:59:07;23.30;69.50
74178;DHT22;62540;48.456;-4.456;2023-08-12T09:01:33;23.23;69.12
74178;DHT22;62540;48.456;-4.456;2023-08-12T09:04:00;23.08;69.35
74178;DHT22;62540;48.456;-4.456;2023-08-12T09:06:28;23.16;69.77
74178;DHT22;62540;48.456;-4.456;2023-08-12T09:08:54;23.27;69.73
74178;DHT22;62540;48.456;-4.456;2023-08-12T09:11:20;23.45;69.39
74178;DHT22;62540;48.456;-4.456;2023-08-12T09:13:46;23.53;68.90
74178;DHT22;62540;48.456;-4.456;2023-08-12T09:16:12;23.45;69.24
74178;DHT22;62540;48.456;-4.456;2023-08-12T09:18:39;23.43;69.21
74178;DHT22;62540;48.456;-4.456;2023-08-12T09:21:05;23.47;69.09
74178;DHT22;62540;48.456;-4.456;2023-08-12T09:23:37;23.45;67.63
74178;DHT22;62540;48.456;-4.456;2023-08-12T09:26:12;23.36;68.77
74178;DHT22;62540;48.456;-4.456;2023-08-12T09:28:38;23.38;69.16
74178;DHT22;62540;48.456;-4.456;2023-08-12T09:31:03;23.46;69.26
74178;DHT22;62540;48.456;-4.456;2023-08-12T09:33:28;23.56;68.82
74178;DHT22;62540;48.456;-4.456;2023-08-12T09:35:54;23.60;68.92
74178;DHT22;62540;48.456;-4.456;2023-08-12T09:38:21;23.61;68.58
74178;DHT22;62540;48.456;-4.456;2023-08-12T09:40:47;23.52;68.09
74178;DHT22;62540;48.456;-4.456;2023-08-12T09:43:13;23.57;68.81
74178;DHT22;62540;48.456;-4.456;2023-08-12T09:45:38;23.61;68.32
74178;DHT22;62540;48.456;-4.456;2023-08-12T09:48:04;23.54;68.64
74178;DHT22;62540;48.456;-4.456;2023-08-12T09:50:30;23.57;68.77
74178;DHT22;62540;48.456;-4.456;2023-08-12T09:52:55;23.53;68.27
74178;DHT22;62540;48.456;-4.456;2023-08-12T09:55:24;23.53;68.47
74178;DHT22;62540;48.456;-4.456;2023-08-12T09:57:54;23.45;68.37
74178;DHT22;62540;48.456;-4.456;2023-08-12T10:00:22;23.42;68.89
74178;DHT22;62540;48.456;-4.456;2023-08-12T10:02:50;23.23;69.07
74178;DHT22;62540;48.456;-4.456;2023-08-12T10:05:27;23.18;69.55
74178;DHT22;62540;48.456;-4.456;2023-08-12T10:07:53;23.11;69.88
74178;DHT22;62540;48.456;-4.456;2023-08-12T10:10:20;22.95;70.06
74178;DHT22;62540;48.456;-4.456;2023-08-12T10:12:46;22.82;70.82
74178;DHT22;62540;48.456;-4.456;2023-08-12T10:15:13;22.98;70.53
74178;DHT22;62540;48.456;-4.456;2023-08-12T10:17:41;23.12;70.52
74178;DHT22;62540;48.456;-4.456;2023-08-12T10:20:08;23.13;70.15
74178;DHT22;62540;48.456;-4.456;2023-08-12T10:22:39;23.34;69.47
74178;DHT22;62540;48.456;-4.456;2023-08-12T10:25:07;23.39;69.63
74178;DHT22;62540;48.456;-4.456;2023-08-12T10:27:33;23.47;68.36
74178;DHT22;62540;48.456;-4.456;2023-08-12T10:29:59;23.59;69.34
74178;DHT22;62540;48.456;-4.456;2023-08-12T10:32:25;23.70;68.22
74178;DHT22;62540;48.456;-4.456;2023-08-12T10:34:56;23.78;68.69
74178;DHT22;62540;48.456;-4.456;2023-08-12T10:37:23;23.85;68.34
74178;DHT22;62540;48.456;-4.456;2023-08-12T10:39:49;23.96;68.26
74178;DHT22;62540;48.456;-4.456;2023-08-12T10:42:47;23.96;68.50
74178;DHT22;62540;48.456;-4.456;2023-08-12T10:45:14;23.82;68.22
74178;DHT22;62540;48.456;-4.456;2023-08-12T10:50:20;23.88;68.23
74178;DHT22;62540;48.456;-4.456;2023-08-12T10:52:47;24.19;68.50
74178;DHT22;62540;48.456;-4.456;2023-08-12T10:55:19;24.56;67.13
74178;DHT22;62540;48.456;-4.456;2023-08-12T10:57:46;24.77;66.65
74178;DHT22;62540;48.456;-4.456;2023-08-12T11:00:16;25.16;66.38
74178;DHT22;62540;48.456;-4.456;2023-08-12T11:02:46;25.45;64.98
74178;DHT22;62540;48.456;-4.456;2023-08-12T11:05:13;25.74;64.71
74178;DHT22;62540;48.456;-4.456;2023-08-12T11:07:58;26.00;63.00
74178;DHT22;62540;48.456;-4.456;2023-08-12T11:10:26;26.00;62.81
74178;DHT22;62540;48.456;-4.456;2023-08-12T11:15:19;25.95;63.19
74178;DHT22;62540;48.456;-4.456;2023-08-12T11:17:54;26.12;62.79
74178;DHT22;62540;48.456;-4.456;2023-08-12T11:20:20;26.32;62.73
74178;DHT22;62540;48.456;-4.456;2023-08-12T11:22:46;26.40;61.96
74178;DHT22;62540;48.456;-4.456;2023-08-12T11:25:13;26.39;59.42
74178;DHT22;62540;48.456;-4.456;2023-08-12T11:27:45;26.32;60.20
74178;DHT22;62540;48.456;-4.456;2023-08-12T11:30:17;26.39;61.04
74178;DHT22;62540;48.456;-4.456;2023-08-12T11:32:43;26.44;60.92
74178;DHT22;62540;48.456;-4.456;2023-08-12T11:35:10;26.50;60.43
74178;DHT22;62540;48.456;-4.456;2023-08-12T11:37:37;26.50;59.77
74178;DHT22;62540;48.456;-4.456;2023-08-12T11:40:05;26.43;59.71
74178;DHT22;62540;48.456;-4.456;2023-08-12T11:42:30;26.48;60.56
74178;DHT22;62540;48.456;-4.456;2023-08-12T11:44:56;26.62;59.98
74178;DHT22;62540;48.456;-4.456;2023-08-12T11:47:21;26.84;59.11
74178;DHT22;62540;48.456;-4.456;2023-08-12T11:49:47;26.90;59.06
74178;DHT22;62540;48.456;-4.456;2023-08-12T11:52:12;27.08;60.22
74178;DHT22;62540;48.456;-4.456;2023-08-12T11:54:39;27.25;59.91
74178;DHT22;62540;48.456;-4.456;2023-08-12T11:57:04;27.50;58.59
74178;DHT22;62540;48.456;-4.456;2023-08-12T11:59:30;27.59;58.39
74178;DHT22;62540;48.456;-4.456;2023-08-12T12:01:56;27.71;57.78
74178;DHT22;62540;48.456;-4.456;2023-08-12T12:04:22;27.71;57.50
74178;DHT22;62540;48.456;-4.456;2023-08-12T12:06:48;27.63;58.19
74178;DHT22;62540;48.456;-4.456;2023-08-12T12:09:14;27.69;57.28
74178;DHT22;62540;48.456;-4.456;2023-08-12T12:11:41;27.87;56.95
74178;DHT22;62540;48.456;-4.456;2023-08-12T12:14:08;28.12;57.48
74178;DHT22;62540;48.456;-4.456;2023-08-12T12:16:45;28.02;54.98
74178;DHT22;62540;48.456;-4.456;2023-08-12T12:19:17;28.07;56.10
74178;DHT22;62540;48.456;-4.456;2023-08-12T12:21:45;27.91;56.11
74178;DHT22;62540;48.456;-4.456;2023-08-12T12:24:11;27.76;55.29
74178;DHT22;62540;48.456;-4.456;2023-08-12T12:26:37;27.38;54.85
74178;DHT22;62540;48.456;-4.456;2023-08-12T12:29:04;27.09;56.61
74178;DHT22;62540;48.456;-4.456;2023-08-12T12:31:32;27.16;57.13
74178;DHT22;62540;48.456;-4.456;2023-08-12T12:33:58;27.09;57.26
74178;DHT22;62540;48.456;-4.456;2023-08-12T12:36:24;27.06;57.12
74178;DHT22;62540;48.456;-4.456;2023-08-12T12:38:49;27.09;56.94
74178;DHT22;62540;48.456;-4.456;2023-08-12T12:41:14;27.01;56.97
74178;DHT22;62540;48.456;-4.456;2023-08-12T12:43:40;26.78;56.39
74178;DHT22;62540;48.456;-4.456;2023-08-12T12:46:05;26.90;57.71
74178;DHT22;62540;48.456;-4.456;2023-08-12T12:48:31;26.82;57.60
74178;DHT22;62540;48.456;-4.456;2023-08-12T12:50:56;26.78;57.62
74178;DHT22;62540;48.456;-4.456;2023-08-12T12:53:22;26.82;56.97
74178;DHT22;62540;48.456;-4.456;2023-08-12T12:55:47;26.94;57.76
74178;DHT22;62540;48.456;-4.456;2023-08-12T12:58:13;26.96;57.64
74178;DHT22;62540;48.456;-4.456;2023-08-12T13:00:38;26.85;57.43
74178;DHT22;62540;48.456;-4.456;2023-08-12T13:03:03;26.81;57.43
74178;DHT22;62540;48.456;-4.456;2023-08-12T13:05:29;26.74;57.73
74178;DHT22;62540;48.456;-4.456;2023-08-12T13:07:54;26.75;57.68
74178;DHT22;62540;48.456;-4.456;2023-08-12T13:10:20;26.61;57.85
74178;DHT22;62540;48.456;-4.456;2023-08-12T13:12:45;26.55;57.74
74178;DHT22;62540;48.456;-4.456;2023-08-12T13:15:10;26.32;58.15
74178;DHT22;62540;48.456;-4.456;2023-08-12T13:17:36;26.29;58.53
74178;DHT22;62540;48.456;-4.456;2023-08-12T13:20:02;26.13;58.20
74178;DHT22;62540;48.456;-4.456;2023-08-12T13:22:28;26.13;58.80
74178;DHT22;62540;48.456;-4.456;2023-08-12T13:24:53;25.99;59.11
74178;DHT22;62540;48.456;-4.456;2023-08-12T13:27:19;26.06;59.10
74178;DHT22;62540;48.456;-4.456;2023-08-12T13:29:44;25.89;59.30
74178;DHT22;62540;48.456;-4.456;2023-08-12T13:32:09;25.78;59.43
74178;DHT22;62540;48.456;-4.456;2023-08-12T13:34:35;25.81;59.66
74178;DHT22;62540;48.456;-4.456;2023-08-12T13:37:00;25.88;59.65
74178;DHT22;62540;48.456;-4.456;2023-08-12T13:39:25;25.83;59.74
74178;DHT22;62540;48.456;-4.456;2023-08-12T13:41:51;25.82;59.37
74178;DHT22;62540;48.456;-4.456;2023-08-12T13:44:16;25.86;59.77
74178;DHT22;62540;48.456;-4.456;2023-08-12T13:46:42;26.03;60.01
74178;DHT22;62540;48.456;-4.456;2023-08-12T13:49:07;26.23;59.77
74178;DHT22;62540;48.456;-4.456;2023-08-12T13:51:32;26.33;59.06
74178;DHT22;62540;48.456;-4.456;2023-08-12T13:53:58;26.32;59.46
74178;DHT22;62540;48.456;-4.456;2023-08-12T13:56:23;26.33;59.26
74178;DHT22;62540;48.456;-4.456;2023-08-12T13:58:49;26.43;58.60
74178;DHT22;62540;48.456;-4.456;2023-08-12T14:01:15;26.43;58.45
74178;DHT22;62540;48.456;-4.456;2023-08-12T14:03:41;26.48;58.72
74178;DHT22;62540;48.456;-4.456;2023-08-12T14:06:06;26.50;58.39
74178;DHT22;62540;48.456;-4.456;2023-08-12T14:08:31;26.51;58.03
74178;DHT22;62540;48.456;-4.456;2023-08-12T14:10:57;26.41;57.98
74178;DHT22;62540;48.456;-4.456;2023-08-12T14:13:22;26.29;57.89
74178;DHT22;62540;48.456;-4.456;2023-08-12T14:15:48;26.26;58.12
74178;DHT22;62540;48.456;-4.456;2023-08-12T14:18:13;26.17;58.42
74178;DHT22;62540;48.456;-4.456;2023-08-12T14:20:38;26.06;58.49
74178;DHT22;62540;48.456;-4.456;2023-08-12T14:23:04;26.17;58.76
74178;DHT22;62540;48.456;-4.456;2023-08-12T14:25:29;26.30;58.80
74178;DHT22;62540;48.456;-4.456;2023-08-12T14:27:55;26.40;58.29
74178;DHT22;62540;48.456;-4.456;2023-08-12T14:30:24;26.06;57.50
74178;DHT22;62540;48.456;-4.456;2023-08-12T14:32:50;25.89;58.22
74178;DHT22;62540;48.456;-4.456;2023-08-12T14:35:16;25.86;58.58
74178;DHT22;62540;48.456;-4.456;2023-08-12T14:37:41;25.83;58.62
74178;DHT22;62540;48.456;-4.456;2023-08-12T14:40:07;25.82;59.00
74178;DHT22;62540;48.456;-4.456;2023-08-12T14:42:33;25.92;59.19
74178;DHT22;62540;48.456;-4.456;2023-08-12T14:44:58;25.89;58.85
74178;DHT22;62540;48.456;-4.456;2023-08-12T14:47:24;25.82;58.92
74178;DHT22;62540;48.456;-4.456;2023-08-12T14:49:49;25.86;59.09
74178;DHT22;62540;48.456;-4.456;2023-08-12T14:52:18;25.97;58.82
74178;DHT22;62540;48.456;-4.456;2023-08-12T14:54:44;26.03;58.33
74178;DHT22;62540;48.456;-4.456;2023-08-12T14:57:09;26.03;58.01
74178;DHT22;62540;48.456;-4.456;2023-08-12T14:59:35;26.09;57.16
74178;DHT22;62540;48.456;-4.456;2023-08-12T15:02:00;26.07;57.26
74178;DHT22;62540;48.456;-4.456;2023-08-12T15:04:25;26.04;57.47
74178;DHT22;62540;48.456;-4.456;2023-08-12T15:06:51;26.10;57.47
74178;DHT22;62540;48.456;-4.456;2023-08-12T15:09:16;26.10;57.13
74178;DHT22;62540;48.456;-4.456;2023-08-12T15:11:42;26.02;57.16
74178;DHT22;62540;48.456;-4.456;2023-08-12T15:14:07;25.88;56.90
74178;DHT22;62540;48.456;-4.456;2023-08-12T15:16:33;25.82;56.71